Time;durP1;ratioP1;P1;durP2;ratioP2;P2;SDS_P1;SDS_P2;PMS_P1;PMS_P2;Temp;Humidity;BMP_temperature;BMP_pressure;BME280_temperature;BME280_humidity;BME280_pressure;Samples;Min_cycle;Max_cycle;Signal;HPM_P1;HPM_P2
2022/08/05 00:01:21;;;;;;;6.03;3.38;;;22.60;71.70;;;;;;5116628;28;20024;-71
2022/08/05 00:03:48;;;;;;;5.43;3.25;;;22.70;70.80;;;;;;5116699;28;20025;-71
2022/08/05 00:06:14;;;;;;;7.70;3.67;;;22.70;70.80;;;;;;5116609;28;20024;-71
2022/08/05 00:08:40;;;;;;;7.50;3.97;;;22.80;70.80;;;;;;5116443;28;20048;-71
2022/08/05 00:11:09;;;;;;;5.60;3.50;;;22.80;70.70;;;;;;5116416;28;20071;-71
2022/08/05 00:13:36;;;;;;;6.13;3.85;;;22.80;70.70;;;;;;5116376;28;20051;-71
2022/08/05 00:16:02;;;;;;;8.40;3.78;;;22.80;70.70;;;;;;5116302;28;20061;-70
2022/08/05 00:18:28;;;;;;;7.80;4.10;;;22.80;70.70;;;;;;5116151;28;20028;-71
2022/08/05 00:20:54;;;;;;;6.97;3.38;;;22.80;70.60;;;;;;5116181;28;20038;-70
2022/08/05 00:23:21;;;;;;;5.13;3.42;;;22.80;70.50;;;;;;5116206;28;20009;-71
2022/08/05 00:25:47;;;;;;;6.30;3.70;;;22.80;70.50;;;;;;5116114;28;20012;-70
2022/08/05 00:28:14;;;;;;;5.90;3.50;;;22.80;70.60;;;;;;5115977;28;20028;-70
2022/08/05 00:30:40;;;;;;;5.65;3.50;;;22.80;70.80;;;;;;5116012;28;20032;-71
2022/08/05 00:33:06;;;;;;;7.07;3.47;;;22.80;70.80;;;;;;5116016;28;20048;-70
2022/08/05 00:35:32;;;;;;;5.55;3.67;;;22.80;70.70;;;;;;5115925;28;20032;-70
2022/08/05 00:37:58;;;;;;;7.97;3.50;;;22.80;70.90;;;;;;5115817;28;20032;-71
2022/08/05 00:40:25;;;;;;;5.78;3.53;;;22.80;71.00;;;;;;5115856;28;20028;-71
2022/08/05 00:42:51;;;;;;;4.95;3.60;;;22.80;71.00;;;;;;5115612;28;20028;-71
2022/08/05 00:45:17;;;;;;;8.35;3.70;;;22.70;71.00;;;;;;5115735;28;20020;-71
2022/08/05 00:47:43;;;;;;;5.55;3.20;;;22.70;71.20;;;;;;5115840;28;20028;-71
2022/08/05 00:50:09;;;;;;;7.28;3.90;;;22.70;71.10;;;;;;5115657;28;20039;-71
2022/08/05 00:52:35;;;;;;;5.60;3.03;;;22.70;71.40;;;;;;5115593;28;20024;-71
2022/08/05 00:55:01;;;;;;;7.95;3.20;;;22.70;71.60;;;;;;5115557;28;20028;-71
2022/08/05 00:57:26;;;;;;;5.57;3.20;;;22.60;71.60;;;;;;5115470;28;20031;-71
2022/08/05 00:59:52;;;;;;;6.07;2.97;;;22.60;71.60;;;;;;5114421;28;20411;-71
2022/08/05 01:02:18;;;;;;;8.95;2.97;;;22.60;72.30;;;;;;5115458;28;20024;-71
2022/08/05 01:04:44;;;;;;;6.60;2.70;;;22.60;71.30;;;;;;5115340;28;20027;-71
2022/08/05 01:07:10;;;;;;;4.65;2.95;;;22.60;71.40;;;;;;5114336;28;20024;-70
2022/08/05 01:09:35;;;;;;;6.78;2.83;;;22.60;71.10;;;;;;5115242;28;20035;-70
2022/08/05 01:12:14;;;;;;;4.35;3.15;;;22.60;70.90;;;;;;5115198;28;20035;-71
2022/08/05 01:15:05;;;;;;;5.57;2.78;;;22.60;70.70;;;;;;5115336;28;20008;-71
2022/08/05 01:17:45;;;;;;;6.53;2.33;;;22.50;70.60;;;;;;5115042;28;20030;-70
2022/08/05 01:20:14;;;;;;;5.72;2.80;;;22.50;70.60;;;;;;5115120;28;20021;-71
2022/08/05 01:22:48;;;;;;;5.93;2.72;;;22.50;70.70;;;;;;5115141;28;20040;-71
2022/08/05 01:25:48;;;;;;;5.50;2.83;;;22.40;70.90;;;;;;5115129;28;20052;-71
2022/08/05 01:28:20;;;;;;;7.25;2.72;;;22.40;70.90;;;;;;5114834;28;20103;-71
2022/08/05 01:31:01;;;;;;;5.88;2.75;;;22.40;70.90;;;;;;5115047;28;20088;-71
2022/08/05 01:33:53;;;;;;;4.18;2.65;;;22.30;71.00;;;;;;5114862;28;20046;-71
2022/08/05 01:36:21;;;;;;;6.75;3.00;;;22.30;70.90;;;;;;5114927;28;20045;-71
2022/08/05 01:38:48;;;;;;;3.58;2.63;;;22.30;70.80;;;;;;5114611;28;20037;-70
2022/08/05 01:41:18;;;;;;;5.13;2.80;;;22.30;70.80;;;;;;5114639;28;20042;-70
2022/08/05 01:43:45;;;;;;;4.32;2.75;;;22.30;70.80;;;;;;5114617;28;20034;-71
2022/08/05 01:46:11;;;;;;;5.47;3.13;;;22.30;70.30;;;;;;5114570;28;20020;-71
2022/08/05 01:48:38;;;;;;;5.10;3.38;;;22.30;70.50;;;;;;5114500;28;20028;-71
2022/08/05 01:51:05;;;;;;;5.78;3.50;;;22.30;70.70;;;;;;5114469;28;20054;-71
2022/08/05 01:53:33;;;;;;;6.28;2.90;;;22.30;70.60;;;;;;5114209;28;20024;-71
2022/08/05 01:56:00;;;;;;;5.93;3.92;;;22.30;70.70;;;;;;5114088;28;20084;-71
2022/08/05 01:58:27;;;;;;;8.82;2.92;;;22.30;70.70;;;;;;5114050;28;20087;-71
2022/08/05 02:00:57;;;;;;;5.13;3.03;;;22.30;70.70;;;;;;5114343;28;20024;-70
2022/08/05 02:03:36;;;;;;;4.72;2.80;;;22.20;70.70;;;;;;5114234;28;20050;-71
2022/08/05 02:06:04;;;;;;;5.32;3.13;;;22.20;71.00;;;;;;5114264;28;20088;-71
2022/08/05 02:08:33;;;;;;;3.83;2.80;;;22.20;71.00;;;;;;5114173;28;20028;-71
2022/08/05 02:11:06;;;;;;;5.88;2.90;;;22.20;70.90;;;;;;5114129;28;20028;-71
2022/08/05 02:13:36;;;;;;;6.50;2.88;;;22.20;70.80;;;;;;5114111;28;20020;-71
2022/08/05 02:16:06;;;;;;;4.55;2.80;;;22.20;71.10;;;;;;5114118;28;20051;-71
2022/08/05 02:18:38;;;;;;;5.20;3.10;;;22.20;70.90;;;;;;5114033;28;20026;-71
2022/08/05 02:21:20;;;;;;;4.90;3.05;;;22.20;70.80;;;;;;5113997;28;20020;-71
2022/08/05 02:23:51;;;;;;;5.13;2.95;;;22.30;70.80;;;;;;5113985;28;20024;-71
2022/08/05 02:26:40;;;;;;;4.70;3.15;;;22.20;71.10;;;;;;5113888;28;20047;-71
2022/08/05 02:29:08;;;;;;;7.25;2.90;;;22.20;71.50;;;;;;5113738;28;20110;-71
2022/08/05 02:31:35;;;;;;;5.45;2.67;;;22.10;71.90;;;;;;5113800;28;20038;-71
2022/08/05 02:34:08;;;;;;;9.18;3.42;;;22.10;72.30;;;;;;5113884;28;20084;-71
2022/08/05 02:36:35;;;;;;;;;;;22.10;72.10;;;;;;5114201;28;20035;-71
2022/08/05 02:39:03;;;;;;;7.88;2.88;;;22.00;71.80;;;;;;5113617;28;20354;-71
2022/08/05 02:41:31;;;;;;;9.77;3.33;;;22.00;72.20;;;;;;5113677;28;20031;-72
2022/08/05 02:43:57;;;;;;;6.38;3.22;;;22.00;72.10;;;;;;5113660;28;20054;-71
2022/08/05 02:46:25;;;;;;;7.45;3.50;;;22.00;72.00;;;;;;5113627;28;20020;-71
2022/08/05 02:48:52;;;;;;;5.85;3.50;;;22.00;71.70;;;;;;5113598;28;20028;-70
2022/08/05 02:51:19;;;;;;;7.18;3.65;;;21.90;71.80;;;;;;5113603;28;20080;-71
2022/08/05 02:53:46;;;;;;;6.32;3.22;;;21.90;71.90;;;;;;5113541;28;20063;-71
2022/08/05 02:56:12;;;;;;;6.75;3.58;;;21.80;72.10;;;;;;5112579;28;20032;-71
2022/08/05 02:58:40;;;;;;;5.18;3.40;;;21.70;72.60;;;;;;5113262;28;20028;-71
2022/08/05 03:01:08;;;;;;;6.53;3.17;;;21.70;72.80;;;;;;5113527;28;20475;-71
2022/08/05 03:03:39;;;;;;;5.70;3.40;;;21.80;72.60;;;;;;5113451;28;20012;-71
2022/08/05 03:06:05;;;;;;;6.90;3.10;;;21.80;72.20;;;;;;5114019;28;20062;-71
2022/08/05 03:08:32;;;;;;;7.78;3.70;;;21.80;72.20;;;;;;5117625;28;20115;-71
2022/08/05 03:10:58;;;;;;;8.60;3.97;;;21.80;73.20;;;;;;5117581;28;20020;-71
2022/08/05 03:13:23;;;;;;;5.68;3.22;;;21.80;73.20;;;;;;5117545;28;20028;-71
2022/08/05 03:15:49;;;;;;;7.40;3.47;;;21.80;72.30;;;;;;5117471;28;20039;-71
2022/08/05 03:18:15;;;;;;;6.28;3.53;;;21.80;72.40;;;;;;5117359;28;20039;-71
2022/08/05 03:20:40;;;;;;;6.38;3.65;;;21.80;72.90;;;;;;5116505;28;20024;-71
2022/08/05 03:23:08;;;;;;;7.80;3.40;;;21.70;72.70;;;;;;5117342;28;20020;-70
2022/08/05 03:25:35;;;;;;;9.35;3.83;;;21.80;72.80;;;;;;5117259;28;20019;-71
2022/08/05 03:28:03;;;;;;;6.35;4.10;;;21.70;73.10;;;;;;5117180;28;20095;-71
2022/08/05 03:30:31;;;;;;;6.00;4.00;;;21.60;73.20;;;;;;5117187;28;20020;-71
2022/08/05 03:33:01;;;;;;;6.78;3.90;;;21.60;74.20;;;;;;5117135;28;20031;-71
2022/08/05 03:35:27;;;;;;;8.80;4.13;;;21.60;73.40;;;;;;5117117;28;20086;-71
2022/08/05 03:37:56;;;;;;;11.90;4.32;;;21.60;73.30;;;;;;5116961;28;20550;-71
2022/08/05 03:40:22;;;;;;;7.13;3.90;;;21.60;73.30;;;;;;5117014;28;20041;-71
2022/08/05 03:42:48;;;;;;;8.38;3.97;;;21.60;73.10;;;;;;5116969;28;20020;-71
2022/08/05 03:45:13;;;;;;;7.68;3.80;;;21.60;73.10;;;;;;5116888;28;20050;-71
2022/08/05 03:47:39;;;;;;;7.75;4.20;;;21.60;73.00;;;;;;5117012;28;20024;-71
2022/08/05 03:50:05;;;;;;;7.38;4.07;;;21.60;72.90;;;;;;5116825;28;20039;-71
2022/08/05 03:52:34;;;;;;;8.65;4.50;;;21.60;72.80;;;;;;5116929;28;20035;-71
2022/08/05 03:55:06;;;;;;;6.28;3.92;;;21.60;72.80;;;;;;5116769;28;20051;-71
2022/08/05 03:57:33;;;;;;;7.88;4.22;;;21.60;72.90;;;;;;5116811;28;20016;-71
2022/08/05 04:00:03;;;;;;;7.95;3.85;;;21.60;72.70;;;;;;5116464;28;20036;-71
2022/08/05 04:02:31;;;;;;;7.38;3.80;;;21.60;72.70;;;;;;5116698;28;20008;-71
2022/08/05 04:04:58;;;;;;;7.88;4.10;;;21.60;72.70;;;;;;5116515;28;20028;-71
2022/08/05 04:07:25;;;;;;;9.25;4.32;;;21.60;72.80;;;;;;5116484;28;20028;-71
2022/08/05 04:09:53;;;;;;;7.40;4.18;;;21.40;72.80;;;;;;5116475;28;20075;-71
2022/08/05 04:12:18;;;;;;;7.07;3.63;;;21.50;72.80;;;;;;5116424;28;20374;-71
2022/08/05 04:14:45;;;;;;;13.80;5.38;;;21.50;72.70;;;;;;5116295;28;20088;-71
2022/08/05 04:17:11;;;;;;;8.20;4.07;;;21.50;73.30;;;;;;5115661;28;20036;-71
2022/08/05 04:19:45;;;;;;;8.98;4.00;;;21.40;73.20;;;;;;5116254;28;20020;-72
2022/08/05 04:22:11;;;;;;;10.95;4.55;;;21.40;73.80;;;;;;5116196;28;20024;-71
2022/08/05 04:24:42;;;;;;;9.98;4.13;;;21.40;74.00;;;;;;5116160;28;20045;-71
2022/08/05 04:27:08;;;;;;;8.80;4.30;;;21.40;74.30;;;;;;5116014;28;20028;-71
2022/08/05 04:29:34;;;;;;;8.75;4.38;;;21.30;74.50;;;;;;5116018;28;20076;-71
2022/08/05 04:32:00;;;;;;;8.25;4.65;;;21.20;74.20;;;;;;5116156;28;20024;-72
2022/08/05 04:34:25;;;;;;;7.20;4.13;;;21.10;74.60;;;;;;5115953;28;20031;-72
2022/08/05 04:36:51;;;;;;;5.20;3.75;;;21.00;75.00;;;;;;5115943;28;20036;-72
2022/08/05 04:39:17;;;;;;;7.25;4.03;;;21.00;75.20;;;;;;5115816;28;20364;-72
2022/08/05 04:41:43;;;;;;;8.07;3.88;;;21.00;74.80;;;;;;5115811;28;20020;-72
2022/08/05 04:44:09;;;;;;;8.77;3.83;;;21.00;74.70;;;;;;5115817;28;20099;-72
2022/08/05 04:46:34;;;;;;;7.03;4.00;;;20.80;74.80;;;;;;5115769;28;20028;-72
2022/08/05 04:49:00;;;;;;;6.80;3.90;;;20.70;74.90;;;;;;5115691;28;20054;-73
2022/08/05 04:51:25;;;;;;;7.63;3.05;;;20.60;74.90;;;;;;5115780;28;20032;-72
2022/08/05 04:53:51;;;;;;;6.82;3.95;;;20.60;75.30;;;;;;5115572;28;20111;-72
2022/08/05 04:56:17;;;;;;;8.77;3.67;;;20.70;75.40;;;;;;5114704;28;20027;-72
2022/08/05 04:58:43;;;;;;;7.53;4.10;;;20.70;75.50;;;;;;5115260;28;20040;-72
2022/08/05 05:01:08;;;;;;;9.27;3.90;;;20.80;75.70;;;;;;5115523;28;20053;-73
2022/08/05 05:03:34;;;;;;;9.35;4.00;;;20.90;75.50;;;;;;5115394;28;20027;-73
2022/08/05 05:06:00;;;;;;;6.63;3.92;;;20.90;75.50;;;;;;5115364;28;20078;-72
2022/08/05 05:08:25;;;;;;;10.07;4.25;;;21.00;75.60;;;;;;5115302;28;20040;-73
2022/08/05 05:10:51;;;;;;;8.00;4.03;;;20.80;75.80;;;;;;5115286;28;20032;-73
2022/08/05 05:13:17;;;;;;;8.77;4.50;;;20.90;76.00;;;;;;5115190;28;20020;-73
2022/08/05 05:15:44;;;;;;;7.93;4.70;;;21.00;75.90;;;;;;5115182;28;20043;-73
2022/08/05 05:18:16;;;;;;;9.00;5.30;;;21.00;75.70;;;;;;5115023;28;20054;-73
2022/08/05 05:20:43;;;;;;;7.57;4.68;;;21.10;75.60;;;;;;5115215;28;20032;-72
2022/08/05 05:23:09;;;;;;;8.55;4.45;;;21.10;75.50;;;;;;5115024;28;20088;-73
2022/08/05 05:25:35;;;;;;;8.80;4.32;;;21.10;75.60;;;;;;5114972;28;20020;-73
2022/08/05 05:28:00;;;;;;;9.63;4.88;;;21.00;75.50;;;;;;5114860;28;20028;-72
2022/08/05 05:30:26;;;;;;;9.82;5.00;;;21.00;75.90;;;;;;5113959;28;20024;-73
2022/08/05 05:32:52;;;;;;;7.68;4.57;;;21.10;77.00;;;;;;5114862;28;20024;-73
2022/08/05 05:35:18;;;;;;;8.32;4.82;;;21.10;76.00;;;;;;5114807;28;20024;-72
2022/08/05 05:37:55;;;;;;;10.32;4.90;;;21.10;76.10;;;;;;5114702;28;20020;-72
2022/08/05 05:40:22;;;;;;;8.77;5.35;;;21.00;76.40;;;;;;5114705;28;20020;-73
2022/08/05 05:42:48;;;;;;;8.63;4.88;;;21.00;76.70;;;;;;5114658;28;20027;-74
2022/08/05 05:45:14;;;;;;;12.07;5.18;;;21.00;76.50;;;;;;5114640;28;20020;-72
2022/08/05 05:47:40;;;;;;;9.60;5.07;;;21.10;76.40;;;;;;5114573;28;20031;-73
2022/08/05 05:50:08;;;;;;;10.23;4.65;;;21.10;76.20;;;;;;5114497;28;20028;-72
2022/08/05 05:52:34;;;;;;;11.25;5.05;;;21.10;76.00;;;;;;5114481;28;20468;-72
2022/08/05 05:55:07;;;;;;;9.32;4.90;;;21.10;76.20;;;;;;5114453;28;20043;-72
2022/08/05 05:57:33;;;;;;;7.43;4.95;;;21.20;76.40;;;;;;5114387;28;20052;-72
2022/08/05 05:59:59;;;;;;;9.85;4.78;;;21.20;76.20;;;;;;5114129;28;20089;-72
2022/08/05 06:02:24;;;;;;;8.32;5.00;;;21.20;76.20;;;;;;5114275;28;20020;-72
2022/08/05 06:04:50;;;;;;;9.25;5.00;;;21.20;76.10;;;;;;5114255;28;20035;-72
2022/08/05 06:07:17;;;;;;;9.02;4.82;;;21.20;75.90;;;;;;5114183;28;20024;-72
2022/08/05 06:09:43;;;;;;;10.43;5.50;;;21.30;75.90;;;;;;5114186;28;20031;-74
2022/08/05 06:12:09;;;;;;;9.68;6.07;;;21.20;75.70;;;;;;5114113;28;20028;-72
2022/08/05 06:14:35;;;;;;;7.13;4.95;;;21.20;75.60;;;;;;5114065;28;20028;-73
2022/08/05 06:17:01;;;;;;;8.13;5.30;;;21.20;75.60;;;;;;5114051;28;20031;-72
2022/08/05 06:19:26;;;;;;;9.95;5.53;;;21.10;75.60;;;;;;5113950;28;20031;-73
2022/08/05 06:21:52;;;;;;;9.57;5.63;;;21.00;76.00;;;;;;5113888;28;20060;-72
2022/08/05 06:24:18;;;;;;;9.30;5.70;;;21.00;76.30;;;;;;5113930;28;20027;-73
2022/08/05 06:26:44;;;;;;;9.52;5.32;;;21.00;76.40;;;;;;5113897;28;20024;-72
2022/08/05 06:29:10;;;;;;;11.35;5.65;;;21.10;76.40;;;;;;5113788;28;20041;-72
2022/08/05 06:31:36;;;;;;;9.50;5.18;;;21.10;76.30;;;;;;5113813;28;20028;-72
2022/08/05 06:34:02;;;;;;;9.38;4.88;;;21.10;76.30;;;;;;5113791;28;20035;-72
2022/08/05 06:36:28;;;;;;;6.55;4.53;;;21.10;76.40;;;;;;5113729;28;20028;-73
2022/08/05 06:38:54;;;;;;;8.23;4.40;;;21.20;76.40;;;;;;5113638;28;20036;-73
2022/08/05 06:41:20;;;;;;;8.23;4.70;;;21.20;76.50;;;;;;5113444;28;20027;-73
2022/08/05 06:43:46;;;;;;;6.10;4.40;;;21.20;76.60;;;;;;5113626;28;20099;-72
2022/08/05 06:46:12;;;;;;;7.93;4.32;;;21.20;77.60;;;;;;5113661;28;20031;-73
2022/08/05 06:48:38;;;;;;;7.75;4.60;;;21.20;76.80;;;;;;5113570;28;20032;-73
2022/08/05 06:51:04;;;;;;;5.72;4.47;;;21.20;76.90;;;;;;5112695;28;20054;-73
2022/08/05 06:53:30;;;;;;;9.40;5.00;;;21.20;76.80;;;;;;5113552;28;20028;-73
2022/08/05 06:55:59;;;;;;;6.80;4.88;;;21.20;76.50;;;;;;5112587;28;20058;-73
2022/08/05 06:58:26;;;;;;;7.53;4.88;;;21.20;76.40;;;;;;5113347;28;20044;-73
2022/08/05 07:00:52;;;;;;;7.22;5.13;;;21.30;76.70;;;;;;5113525;28;20035;-73
2022/08/05 07:03:18;;;;;;;9.75;5.65;;;21.30;76.70;;;;;;5113566;28;20024;-73
2022/08/05 07:05:44;;;;;;;9.52;4.95;;;21.30;76.40;;;;;;5113425;28;20024;-73
2022/08/05 07:08:09;;;;;;;11.38;5.47;;;21.30;76.30;;;;;;5113424;28;20024;-73
2022/08/05 07:10:35;;;;;;;6.90;5.25;;;21.30;76.30;;;;;;5113419;28;20039;-73
2022/08/05 07:18:29;;;;;;;10.10;4.50;;;21.40;76.30;;;;;;5113492;28;20152;-72
2022/08/05 07:20:55;;;;;;;9.30;4.97;;;21.40;76.20;;;;;;5113318;28;20025;-72
2022/08/05 07:23:20;;;;;;;7.38;4.93;;;21.40;76.10;;;;;;5113285;28;20032;-73
2022/08/05 07:25:46;;;;;;;8.40;5.20;;;21.40;75.90;;;;;;5113275;28;20024;-72
2022/08/05 07:28:12;;;;;;;12.80;5.40;;;21.50;75.90;;;;;;5113171;28;20032;-72
2022/08/05 07:30:37;;;;;;;7.30;4.82;;;21.50;75.70;;;;;;5113216;28;20040;-72
2022/08/05 07:33:05;;;;;;;7.70;5.20;;;21.50;75.60;;;;;;5113193;28;20546;-72
2022/08/05 07:35:31;;;;;;;8.88;4.95;;;21.60;75.40;;;;;;5113189;28;20024;-73
2022/08/05 07:37:56;;;;;;;8.90;5.57;;;21.60;75.40;;;;;;5113068;28;20032;-72
2022/08/05 07:40:22;;;;;;;8.07;4.97;;;21.60;75.20;;;;;;5112210;28;20027;-72
2022/08/05 07:42:48;;;;;;;10.95;5.03;;;21.60;75.30;;;;;;5113219;28;20024;-72
2022/08/05 07:45:14;;;;;;;7.43;5.00;;;21.70;75.50;;;;;;5113208;28;20054;-72
2022/08/05 07:47:42;;;;;;;7.90;4.95;;;21.70;75.70;;;;;;5113069;28;20028;-73
2022/08/05 07:50:08;;;;;;;6.75;4.00;;;21.80;75.50;;;;;;5112323;28;20024;-72
2022/08/05 07:52:38;;;;;;;6.28;4.40;;;21.80;75.00;;;;;;5114154;28;20024;-72
2022/08/05 07:55:05;;;;;;;6.32;4.63;;;21.80;74.70;;;;;;5116740;28;20089;-73
2022/08/05 07:57:30;;;;;;;7.85;4.53;;;21.80;75.30;;;;;;5115727;28;20032;-72
2022/08/05 07:59:56;;;;;;;8.32;4.25;;;21.80;75.00;;;;;;5116457;28;20055;-72
2022/08/05 08:02:26;;;;;;;8.88;4.25;;;21.80;74.80;;;;;;5116596;28;20039;-73
2022/08/05 08:04:52;;;;;;;8.52;4.28;;;21.80;74.70;;;;;;5116580;28;20035;-72
2022/08/05 08:07:19;;;;;;;7.72;4.05;;;21.90;74.70;;;;;;5116522;28;20028;-72
2022/08/05 08:09:45;;;;;;;5.93;2.92;;;21.80;74.20;;;;;;5116518;28;20028;-72
2022/08/05 08:12:14;;;;;;;6.53;2.95;;;21.80;73.70;;;;;;5116435;28;20041;-72
2022/08/05 08:14:40;;;;;;;7.22;3.30;;;21.80;73.10;;;;;;5116425;28;20016;-72
2022/08/05 08:17:12;;;;;;;6.25;3.15;;;21.80;73.60;;;;;;5116348;28;20027;-72
2022/08/05 08:19:39;;;;;;;4.70;2.95;;;21.80;73.30;;;;;;5116505;28;20038;-72
2022/08/05 08:22:06;;;;;;;3.75;2.70;;;21.90;73.00;;;;;;5116252;28;20024;-72
2022/08/05 08:24:32;;;;;;;4.82;2.67;;;21.90;72.40;;;;;;5116213;28;20032;-72
2022/08/05 08:26:58;;;;;;;5.07;2.58;;;21.90;72.40;;;;;;5116174;28;20020;-72
2022/08/05 08:29:24;;;;;;;6.68;2.33;;;21.80;71.40;;;;;;5116076;28;20032;-71
2022/08/05 08:31:50;;;;;;;5.47;2.55;;;21.90;71.30;;;;;;5116026;28;20054;-72
2022/08/05 08:34:20;;;;;;;5.07;1.98;;;22.00;71.30;;;;;;5116155;28;20020;-71
2022/08/05 08:36:46;;;;;;;2.30;1.83;;;22.00;69.90;;;;;;5115990;28;20030;-72
2022/08/05 08:39:12;;;;;;;3.83;2.22;;;22.00;69.50;;;;;;5115844;28;20048;-72
2022/08/05 08:41:40;;;;;;;3.30;1.80;;;22.00;69.40;;;;;;5115860;28;20020;-72
2022/08/05 08:44:14;;;;;;;2.63;1.77;;;22.10;69.20;;;;;;5115830;28;20027;-72
2022/08/05 08:46:40;;;;;;;3.00;1.50;;;22.10;68.60;;;;;;5115800;28;20024;-71
2022/08/05 08:49:07;;;;;;;3.53;1.92;;;22.20;67.90;;;;;;5115730;28;20032;-71
2022/08/05 08:51:34;;;;;;;3.72;1.60;;;22.20;67.90;;;;;;5115630;28;20046;-71
2022/08/05 08:53:59;;;;;;;5.53;1.80;;;22.30;67.30;;;;;;5115640;28;20024;-71
2022/08/05 08:56:25;;;;;;;3.13;1.77;;;22.40;67.50;;;;;;5115592;28;20038;-71
2022/08/05 08:58:51;;;;;;;5.75;1.70;;;22.60;67.20;;;;;;5115411;28;20104;-71
2022/08/05 09:01:18;;;;;;;3.60;1.67;;;22.60;66.40;;;;;;5115498;28;20028;-71
2022/08/05 09:03:49;;;;;;;2.72;1.65;;;22.60;65.80;;;;;;5115367;28;20064;-71
2022/08/05 09:06:16;;;;;;;3.38;1.70;;;22.60;65.60;;;;;;5115393;28;20022;-71
2022/08/05 09:08:41;;;;;;;3.38;1.83;;;22.60;66.40;;;;;;5115340;28;20024;-71
2022/08/05 09:11:07;;;;;;;3.30;1.70;;;22.70;66.30;;;;;;5115425;28;20032;-71
2022/08/05 09:13:35;;;;;;;2.90;1.65;;;22.70;66.00;;;;;;5115283;28;20032;-71
2022/08/05 09:16:01;;;;;;;2.78;1.92;;;22.70;65.60;;;;;;5115212;28;20027;-71
2022/08/05 09:18:27;;;;;;;3.38;1.60;;;22.80;65.80;;;;;;5115066;28;20047;-71
2022/08/05 09:20:53;;;;;;;4.15;2.00;;;22.90;66.20;;;;;;5115096;28;20042;-71
2022/08/05 09:23:19;;;;;;;2.95;1.80;;;23.00;65.50;;;;;;5115057;28;20081;-71
2022/08/05 09:25:47;;;;;;;6.25;2.05;;;23.10;64.50;;;;;;5115068;28;20020;-71
2022/08/05 09:28:17;;;;;;;5.38;2.15;;;23.20;63.90;;;;;;5114863;28;20088;-71
2022/08/05 09:30:54;;;;;;;4.63;2.00;;;23.20;63.70;;;;;;5114932;28;20407;-71
2022/08/05 09:33:20;;;;;;;3.13;2.17;;;23.10;61.90;;;;;;5114913;28;20050;-71
2022/08/05 09:35:56;;;;;;;5.43;2.20;;;23.00;62.00;;;;;;5114772;28;20066;-72
2022/08/05 09:38:22;;;;;;;5.20;2.20;;;23.10;62.60;;;;;;5114532;28;20039;-71
2022/08/05 09:40:48;;;;;;;3.65;2.00;;;23.10;63.20;;;;;;5114723;28;20024;-71
2022/08/05 09:43:26;;;;;;;4.22;2.38;;;23.20;63.70;;;;;;5114675;28;20016;-71
2022/08/05 09:45:52;;;;;;;3.65;2.40;;;23.30;63.00;;;;;;5114626;28;20016;-71
2022/08/05 09:48:26;;;;;;;3.97;2.55;;;23.20;62.90;;;;;;5114602;28;20062;-71
2022/08/05 09:51:10;;;;;;;2.42;1.27;;;23.20;61.40;;;;;;5114603;28;20020;-71
2022/08/05 09:53:51;;;;;;;2.65;1.15;;;23.10;58.50;;;;;;5114514;28;20030;-71
2022/08/05 09:56:34;;;;;;;6.85;1.50;;;23.00;59.10;;;;;;5114557;28;20020;-72
2022/08/05 09:59:04;;;;;;;3.33;1.90;;;22.90;59.80;;;;;;5114140;28;20048;-71
2022/08/05 10:01:35;;;;;;;6.82;1.70;;;22.90;60.50;;;;;;5114252;28;20031;-71
2022/08/05 10:04:12;;;;;;;4.38;1.95;;;22.90;61.20;;;;;;5114291;28;20062;-71
2022/08/05 10:06:52;;;;;;;4.40;2.30;;;22.90;61.40;;;;;;5114268;28;20016;-72
2022/08/05 10:09:22;;;;;;;4.57;1.80;;;22.80;61.60;;;;;;5114228;28;20024;-72
2022/08/05 10:11:49;;;;;;;1.90;1.70;;;22.80;61.90;;;;;;5114333;28;20024;-72
2022/08/05 10:14:29;;;;;;;3.55;1.50;;;22.80;62.10;;;;;;5114121;28;20463;-72
2022/08/05 10:16:55;;;;;;;3.08;1.50;;;22.70;61.10;;;;;;5113763;28;20028;-73
2022/08/05 10:19:22;;;;;;;3.22;1.80;;;22.80;61.50;;;;;;5113977;28;20020;-72
2022/08/05 10:21:48;;;;;;;3.92;1.50;;;22.80;62.30;;;;;;5114001;28;20031;-72
2022/08/05 10:24:17;;;;;;;2.22;1.40;;;22.90;62.10;;;;;;5113035;28;20020;-72
2022/08/05 10:26:44;;;;;;;2.00;1.15;;;23.00;60.90;;;;;;5113941;28;20070;-72
2022/08/05 10:29:10;;;;;;;2.35;1.00;;;23.10;60.70;;;;;;5113857;28;20024;-72
2022/08/05 10:31:38;;;;;;;1.80;1.30;;;23.20;59.40;;;;;;5112975;28;20032;-71
2022/08/05 10:34:06;;;;;;;2.25;1.30;;;23.30;58.60;;;;;;5113782;28;20020;-72
2022/08/05 10:36:32;;;;;;;2.13;1.02;;;23.40;58.30;;;;;;5113932;28;20035;-72
2022/08/05 10:39:18;;;;;;;1.77;1.13;;;23.40;57.50;;;;;;5113663;28;20029;-72
2022/08/05 10:42:15;;;;;;;1.35;0.80;;;23.50;56.30;;;;;;5113899;28;20050;-72
2022/08/05 10:44:45;;;;;;;1.73;0.80;;;23.70;56.10;;;;;;5113682;28;20046;-71
2022/08/05 10:47:13;;;;;;;1.13;1.00;;;23.80;56.20;;;;;;5113621;28;20086;-72
2022/08/05 10:49:58;;;;;;;2.90;0.80;;;23.90;56.10;;;;;;5113844;28;20016;-72
2022/08/05 10:52:39;;;;;;;1.52;0.73;;;24.00;55.30;;;;;;5113586;28;20076;-72
2022/08/05 10:55:08;;;;;;;2.05;0.60;;;24.00;53.40;;;;;;5113567;28;20025;-71
2022/08/05 10:57:35;;;;;;;1.23;0.75;;;24.00;52.40;;;;;;5113458;28;20075;-72
2022/08/05 11:00:22;;;;;;;2.20;0.93;;;24.00;51.70;;;;;;5113355;28;20036;-72
2022/08/05 11:03:06;;;;;;;1.77;0.60;;;24.10;50.40;;;;;;5112588;28;20020;-71
2022/08/05 11:05:33;;;;;;;1.75;0.60;;;24.30;48.70;;;;;;5113458;28;20576;-72
2022/08/05 11:08:04;;;;;;;0.77;0.50;;;24.40;49.30;;;;;;5113435;28;20048;-71
2022/08/05 11:10:31;;;;;;;1.33;0.60;;;24.40;47.70;;;;;;5113464;28;20051;-71
2022/08/05 11:12:58;;;;;;;3.20;0.60;;;24.40;46.90;;;;;;5113370;28;20092;-71
2022/08/05 11:15:34;;;;;;;1.65;0.40;;;24.40;44.50;;;;;;5113459;28;20028;-71
2022/08/05 11:18:25;;;;;;;2.92;0.50;;;24.40;46.20;;;;;;5113332;28;20028;-71
2022/08/05 11:20:51;;;;;;;2.67;0.70;;;24.50;44.80;;;;;;5113341;28;20024;-72
2022/08/05 11:23:35;;;;;;;1.10;0.60;;;24.60;46.00;;;;;;5113292;28;20021;-72
2022/08/05 11:26:15;;;;;;;0.65;0.65;;;24.70;43.40;;;;;;5113266;28;20089;-71
2022/08/05 11:28:44;;;;;;;0.98;0.60;;;24.70;43.80;;;;;;5116277;28;20050;-71
2022/08/05 11:31:09;;;;;;;1.65;0.60;;;24.70;44.60;;;;;;5117324;28;20565;-73
2022/08/05 11:33:37;;;;;;;2.25;0.60;;;24.80;45.00;;;;;;5116199;28;20040;-73
2022/08/05 11:36:06;;;;;;;1.52;0.63;;;24.90;44.60;;;;;;5117145;28;20036;-72
2022/08/05 11:38:41;;;;;;;0.77;0.60;;;25.00;42.80;;;;;;5117030;28;20032;-71
2022/08/05 11:41:06;;;;;;;1.52;0.70;;;25.10;43.10;;;;;;5117186;28;20028;-71
2022/08/05 11:43:34;;;;;;;1.35;0.60;;;25.10;43.30;;;;;;5117032;28;20027;-71
2022/08/05 11:46:01;;;;;;;1.15;0.60;;;25.20;43.00;;;;;;5099017;28;20031;-71
2022/08/05 11:48:27;;;;;;;1.83;0.88;;;25.20;42.20;;;;;;5116926;28;20041;-71
2022/08/05 11:50:53;;;;;;;0.50;0.47;;;25.20;43.30;;;;;;5116913;28;20040;-71
2022/08/05 11:53:19;;;;;;;2.25;0.65;;;25.10;43.10;;;;;;5116839;28;20077;-71
2022/08/05 11:55:59;;;;;;;0.60;0.55;;;25.10;43.30;;;;;;5116784;28;20028;-71
2022/08/05 11:58:38;;;;;;;3.38;0.88;;;25.00;42.80;;;;;;5116651;28;20050;-71
2022/08/05 12:01:11;;;;;;;1.27;0.63;;;24.90;43.00;;;;;;5116785;28;20032;-71
2022/08/05 12:03:50;;;;;;;1.77;0.90;;;24.90;43.60;;;;;;5116652;28;20076;-71
2022/08/05 12:06:17;;;;;;;2.13;0.70;;;24.90;43.60;;;;;;5116806;28;20020;-71
2022/08/05 12:08:45;;;;;;;2.83;0.80;;;24.90;44.00;;;;;;5116582;28;20020;-71
2022/08/05 12:11:19;;;;;;;1.02;0.70;;;24.90;42.90;;;;;;5116503;28;20031;-71
2022/08/05 12:14:04;;;;;;;1.60;0.68;;;25.10;42.70;;;;;;5116556;28;20055;-71
2022/08/05 12:16:46;;;;;;;2.67;0.60;;;25.20;42.20;;;;;;5115499;28;20034;-71
2022/08/05 12:19:12;;;;;;;2.23;1.10;;;25.30;42.30;;;;;;5116266;28;20039;-71
2022/08/05 12:21:56;;;;;;;1.15;0.80;;;25.40;43.50;;;;;;5116314;28;20020;-71
2022/08/05 12:24:22;;;;;;;2.10;0.57;;;25.50;42.70;;;;;;5116302;28;20090;-72
2022/08/05 12:26:52;;;;;;;0.98;0.60;;;25.50;42.40;;;;;;5115244;28;20024;-71
2022/08/05 12:29:20;;;;;;;0.93;0.77;;;25.50;41.50;;;;;;5116121;28;20058;-71
2022/08/05 12:31:54;;;;;;;1.30;0.55;;;25.40;41.60;;;;;;5116009;28;20088;-71
2022/08/05 12:34:34;;;;;;;1.05;0.55;;;25.30;42.80;;;;;;5116265;28;20048;-71
2022/08/05 12:37:09;;;;;;;0.47;0.43;;;25.20;40.60;;;;;;5115995;28;20087;-71
2022/08/05 12:39:35;;;;;;;1.67;0.82;;;25.00;41.50;;;;;;5115625;28;20055;-71
2022/08/05 12:42:01;;;;;;;1.88;0.90;;;24.90;41.90;;;;;;5115946;28;20023;-71
2022/08/05 12:44:27;;;;;;;2.72;0.70;;;24.80;41.60;;;;;;5115858;28;20024;-71
2022/08/05 12:46:54;;;;;;;1.60;0.55;;;24.80;41.70;;;;;;5115828;28;20048;-71
2022/08/05 12:49:21;;;;;;;1.27;0.70;;;24.80;41.70;;;;;;5115911;28;20023;-70
2022/08/05 12:51:58;;;;;;;4.13;1.05;;;24.90;42.40;;;;;;5115833;28;20024;-70
2022/08/05 12:54:30;;;;;;;1.05;0.70;;;24.90;41.00;;;;;;5114661;28;20051;-70
2022/08/05 12:56:59;;;;;;;3.25;0.50;;;25.10;40.60;;;;;;5114578;28;20020;-70
2022/08/05 12:59:30;;;;;;;1.65;0.52;;;25.20;40.50;;;;;;5115289;28;20066;-70